Flight Track Log - Related Links

Times and Time Zones

All times are in EDT time to prevent confusion due to time zone crossing. See the DAL268 flight status page for this flight to view local times or setup timezone preferences in your user account.

Time Position Orientation Groundspeed Altitude Reporting Facility
EDT Latitude Longitude Course Direction KTS MPH feet Rate Location/Type
Tue 06:06:55 PM 33.6420 -84.4350 North 16 18  Level FlightAware ADS-B
Tue 06:08:31 PM 33.6400 -84.4350 180° South 12 14 105 Level FlightAware ADS-B
Tue 06:11:00 PM 33.7929 -84.2348 73° East  Level Estimated
Tue 06:12:00 PM 33.7552 -84.1351 114° Southeast  Level FlightAware Approximate
Tue 06:13:00 PM 33.8172 -84.0548 101° East  Level Estimated
Tue 06:13:23 PM 33.6370 -84.4310 101° East 21 24  Level FlightAware ADS-B
Tue 06:13:49 PM 33.6360 -84.4320 220° Southwest 24 28 176 Level FlightAware ADS-B
Tue 06:14:16 PM 33.6360 -84.4330 270° West 27 31 184 Level FlightAware ADS-B
Tue 06:14:51 PM 33.6360 -84.4350 270° West 21 24 194 Level FlightAware ADS-B
Tue 06:15:57 PM 33.6360 -84.4370 270° West 21 24 207 Level FlightAware ADS-B
Tue 06:16:07 PM 33.6360 -84.4380 270° West 21 24 239 Level FlightAware ADS-B
Tue 06:18:00 PM 33.6712 -84.2364 78° East  Level FlightAware Approximate
Tue 06:18:33 PM 33.6360 -84.4410 78° East 19 22  Level FlightAware ADS-B
Tue 06:21:00 PM 33.7869 -84.2435 73° East  Level Estimated
Tue 06:22:00 PM 33.7530 -84.1418 112° Southeast  Level FlightAware Approximate
Tue 06:23:00 PM 33.8149 -84.0615 101° East  Level Estimated
Tue 06:23:03 PM 33.6350 -84.4020 101° East 171 197 1,700  Level FlightAware ADS-B
Tue 06:23:31 PM 33.6350 -84.3730 90° East 194 223 2,700 1,929 Climbing FlightAware ADS-B
Tue 06:23:59 PM 33.6340 -84.3390 92° East 228 262 3,500 1,895 Climbing FlightAware ADS-B
Tue 06:24:09 PM 33.6340 -84.3260 90° East 240 276 3,900 2,400 Climbing FlightAware ADS-B
Tue 06:24:39 PM 33.6340 -84.2850 90° East 265 305 5,100 2,838 Climbing FlightAware ADS-B
Tue 06:25:23 PM 33.6340 -84.2180 90° East 281 323 7,400 2,917 Climbing FlightAware ADS-B
Tue 06:25:51 PM 33.6340 -84.1750 90° East 294 338 8,600 2,647 Climbing FlightAware ADS-B
Tue 06:26:31 PM 33.6350 -84.1080 89° East 313 360 10,400 2,000 Climbing FlightAware ADS-B
Tue 06:27:15 PM 33.6390 -84.0230 87° East 364 419 11,400 1,655 Climbing FlightAware ADS-B
Tue 06:27:58 PM 33.6440 -83.9350 86° East 390 449 12,800 2,370 Climbing FlightAware ADS-B
Tue 06:28:36 PM 33.6490 -83.8500 86° East 397 457 14,600 2,571 Climbing FlightAware ADS-B
Tue 06:29:22 PM 33.6550 -83.7460 86° East 410 472 16,400 2,302 Climbing FlightAware ADS-B
Tue 06:30:02 PM 33.6620 -83.6560 85° East 419 482 17,900 2,049 Climbing FlightAware ADS-B
Tue 06:30:44 PM 33.6900 -83.5650 70° East 432 497 19,200 1,857 Climbing FlightAware ADS-B
Tue 06:31:26 PM 33.7290 -83.4710 63° Northeast 445 512 20,500 1,953 Climbing FlightAware ADS-B
Tue 06:32:10 PM 33.7690 -83.3720 64° Northeast 452 520 22,000 2,143 Climbing FlightAware ADS-B
Tue 06:32:50 PM 33.8060 -83.2810 64° Northeast 451 519 23,500 1,835 Climbing FlightAware ADS-B
Tue 06:33:35 PM 33.8460 -83.1800 64° Northeast 462 532 24,600 1,429 Climbing FlightAware ADS-B
Tue 06:34:14 PM 33.8830 -83.0880 64° Northeast 473 544 25,500 1,500 Climbing FlightAware ADS-B
Tue 06:34:59 PM 33.9250 -82.9820 64° Northeast 476 548 26,700 1,518 Climbing FlightAware ADS-B
Tue 06:35:37 PM 33.9620 -82.8900 64° Northeast 480 552 27,600 1,301 Climbing FlightAware ADS-B
Tue 06:36:22 PM 34.0050 -82.7830 64° Northeast 487 560 28,500 1,571 Climbing FlightAware ADS-B
Tue 06:37:01 PM 34.0430 -82.6860 65° Northeast 480 552 29,800 2,000 Climbing FlightAware ADS-B
Tue 06:37:46 PM 34.0850 -82.5800 64° Northeast 469 540 31,300 1,778 Climbing FlightAware ADS-B
Tue 06:38:22 PM 34.1190 -82.4930 65° Northeast 469 540 32,200 1,500 Climbing FlightAware ADS-B
Tue 06:39:06 PM 34.1600 -82.3890 65° Northeast 467 537 33,300 1,271 Climbing FlightAware ADS-B
Tue 06:39:47 PM 34.1970 -82.2940 65° Northeast 471 542 34,000 1,047 Climbing FlightAware ADS-B
Tue 06:40:32 PM 34.2390 -82.1880 64° Northeast 468 539 34,800 706 Climbing FlightAware ADS-B
Tue 06:41:12 PM 34.2800 -82.0980 61° Northeast 465 535 35,000 143 Climbing FlightAware ADS-B
Tue 06:41:56 PM 34.3310 -81.9970 59° Northeast 468 539 35,000  Level FlightAware ADS-B
Tue 06:42:37 PM 34.3750 -81.9090 59° Northeast 466 536 35,000  Level FlightAware ADS-B
Tue 06:43:17 PM 34.4200 -81.8180 59° Northeast 466 536 35,000  Level FlightAware ADS-B
Tue 06:44:03 PM 34.4710 -81.7170 58° Northeast 465 535 35,000  Level FlightAware ADS-B
Tue 06:44:43 PM 34.5170 -81.6240 59° Northeast 465 535 35,000  Level FlightAware ADS-B
Tue 06:45:27 PM 34.5660 -81.5250 59° Northeast 465 535 35,000  Level FlightAware ADS-B
Tue 06:46:07 PM 34.6100 -81.4370 59° Northeast 465 535 35,000  Level FlightAware ADS-B
Tue 06:46:50 PM 34.6560 -81.3430 59° Northeast 465 535 35,000  Level FlightAware ADS-B
Tue 06:47:31 PM 34.7020 -81.2490 59° Northeast 465 535 35,000  Level FlightAware ADS-B
Tue 06:48:16 PM 34.7510 -81.1500 59° Northeast 465 535 35,000  Level FlightAware ADS-B
Tue 06:48:59 PM 34.7990 -81.0510 59° Northeast 465 535 35,000  Level FlightAware ADS-B
Tue 06:49:39 PM 34.8430 -80.9610 59° Northeast 468 539 35,000  Level FlightAware ADS-B
Tue 06:50:21 PM 34.8900 -80.8650 59° Northeast 472 543 35,000  Level FlightAware ADS-B
Tue 06:51:03 PM 34.9360 -80.7710 59° Northeast 472 543 35,000  Level FlightAware ADS-B
Tue 06:51:43 PM 34.9810 -80.6790 59° Northeast 472 543 35,000  Level FlightAware ADS-B
Tue 06:52:27 PM 35.0300 -80.5770 60° Northeast 470 541 35,000  Level FlightAware ADS-B
Tue 06:53:08 PM 35.0730 -80.4850 60° Northeast 467 537 35,000  Level FlightAware ADS-B
Tue 06:53:49 PM 35.1110 -80.3880 64° Northeast 464 534 35,000  Level FlightAware ADS-B
Tue 06:54:33 PM 35.1480 -80.2830 67° East 453 521 35,000  Level FlightAware ADS-B
Tue 06:55:17 PM 35.1820 -80.1780 68° East 446 513 35,000  Level FlightAware ADS-B
Tue 06:55:59 PM 35.2140 -80.0810 68° East 443 510 35,000  Level FlightAware ADS-B
Tue 06:56:39 PM 35.2440 -79.9900 68° East 445 512 35,000  Level FlightAware ADS-B
Tue 06:57:21 PM 35.2760 -79.8920 68° East 445 512 35,000  Level FlightAware ADS-B
Tue 06:58:00 PM 35.3050 -79.8080 67° East 445 512 35,000  Level FlightAware ADS-B
Tue 06:59:00 PM 35.3460 -79.6890 67° East 445 512 35,000  Level FlightAware ADS-B
Tue 06:59:36 PM 35.3710 -79.6180 67° East 445 512 35,000  Level FlightAware ADS-B
Tue 07:00:36 PM 35.4120 -79.4990 67° East 445 512 35,000  Level FlightAware ADS-B
Tue 07:01:12 PM 35.4370 -79.4280 67° East 445 512 35,000  Level FlightAware ADS-B
Tue 07:02:02 PM 35.4920 -79.2360 71° East 443 510 35,000  Level FlightAware ADS-B
Tue 07:02:44 PM 35.5240 -79.1370 68° East 443 510 35,000  Level FlightAware ADS-B
Tue 07:03:28 PM 35.5470 -79.0320 75° East 437 503 35,000  Level FlightAware ADS-B
Tue 07:04:05 PM 35.5510 -78.9540 86° East 437 503 35,000  Level FlightAware ADS-B
Tue 07:04:48 PM 35.5480 -78.8350 92° East 437 503 35,000  Level FlightAware ADS-B
Tue 07:05:34 PM 35.5490 -78.7180 89° East 437 503 35,000  Level FlightAware ADS-B
Tue 07:06:14 PM 35.5680 -78.6250 76° East 445 512 35,000  Level FlightAware ADS-B
Tue 07:06:58 PM 35.6120 -78.5260 61° Northeast 447 514 35,000  Level FlightAware ADS-B
Tue 07:07:38 PM 35.6510 -78.4380 61° Northeast 448 516 35,000  Level FlightAware ADS-B
Tue 07:08:20 PM 35.6940 -78.3430 61° Northeast 450 518 35,000  Level FlightAware ADS-B
Tue 07:09:04 PM 35.7390 -78.2420 61° Northeast 451 519 35,000  Level FlightAware ADS-B
Tue 07:09:44 PM 35.7770 -78.1570 61° Northeast 451 519 35,000  Level FlightAware ADS-B
Tue 07:10:22 PM 35.8160 -78.0680 62° Northeast 451 519 35,000  Level FlightAware ADS-B
Tue 07:11:02 PM 35.8570 -77.9760 61° Northeast 451 519 35,000  Level FlightAware ADS-B
Tue 07:11:52 PM 35.9050 -77.8660 62° Northeast 452 520 35,000  Level FlightAware ADS-B
Tue 07:12:30 PM 35.9430 -77.7810 61° Northeast 453 521 35,000  Level FlightAware ADS-B
Tue 07:13:14 PM 35.9920 -77.6800 59° Northeast 457 526 35,000  Level FlightAware ADS-B
Tue 07:13:54 PM 36.0410 -77.5990 53° Northeast 458 527 35,000  Level FlightAware ADS-B
Tue 07:14:38 PM 36.0990 -77.5070 52° Northeast 460 529 35,000  Level FlightAware ADS-B
Tue 07:15:28 PM 36.1630 -77.4040 52° Northeast 458 527 35,000  Level FlightAware ADS-B
Tue 07:16:16 PM 36.2250 -77.3030 53° Northeast 458 527 35,000  Level FlightAware ADS-B
Tue 07:16:52 PM 36.2700 -77.2280 53° Northeast 459 528 35,000  Level FlightAware ADS-B
Tue 07:17:50 PM 36.3080 -77.0990 70° East 454 522 35,000  Level FlightAware ADS-B
Tue 07:18:37 PM 36.3270 -76.9710 80° East 454 522 35,000  Level FlightAware ADS-B
Tue 07:19:18 PM 36.3410 -76.8770 79° East 454 522 35,000  Level FlightAware ADS-B
Tue 07:20:30 PM 36.3690 -76.6970 79° East 457 526 35,000  Level FlightAware ADS-B
Tue 07:21:04 PM 36.3810 -76.6220 79° East 457 526 35,000  Level FlightAware ADS-B
Tue 07:21:36 PM 36.4430 -76.5310 50° Northeast 460 529 35,000  Level FlightAware ADS-B
Tue 07:22:16 PM 36.5160 -76.4840 27° Northeast 458 527 35,000  Level FlightAware ADS-B
Tue 07:23:03 PM 36.5910 -76.4380 26° Northeast 451 519 35,000  Level FlightAware ADS-B
Tue 07:23:46 PM 36.6870 -76.3780 27° Northeast 458 527 35,000  Level FlightAware ADS-B
Tue 07:24:26 PM 36.7650 -76.3290 27° Northeast 458 527 35,000  Level FlightAware ADS-B
Tue 07:25:10 PM 36.8470 -76.2770 27° Northeast 459 528 35,000  Level FlightAware ADS-B
Tue 07:25:49 PM 36.9040 -76.2420 26° Northeast 459 528 35,000  Level FlightAware ADS-B
Tue 07:26:31 PM 37.0020 -76.1771 28° Northeast 460 529 35,000  Level FlightAware ADS-B
Tue 07:27:15 PM 37.0834 -76.1223 28° Northeast 462 532 35,000  Level FlightAware ADS-B
Tue 07:27:46 PM 37.1416 -76.0834 28° Northeast 462 532 35,000  Level FlightAware ADS-B
Tue 07:28:26 PM 37.2185 -76.0321 28° Northeast 462 532 35,000  Level FlightAware ADS-B
Tue 07:28:56 PM 37.2752 -75.9941 28° Northeast 462 532 35,000  Level FlightAware ADS-B
Tue 07:29:37 PM 37.3517 -75.9428 28° Northeast 461 531 35,000  Level FlightAware ADS-B
Tue 07:30:07 PM 37.4084 -75.9047 28° Northeast 461 531 35,000  Level FlightAware ADS-B
Tue 07:31:08 PM 37.5140 -75.8340 28° Northeast 459 528 35,000  Level FlightAware ADS-B
Tue 07:31:53 PM 37.6020 -75.7740 28° Northeast 459 528 35,000  Level FlightAware ADS-B
Tue 07:32:33 PM 37.6790 -75.7210 29° Northeast 459 528 35,000  Level FlightAware ADS-B
Tue 07:33:20 PM 37.7692 -75.6603 28° Northeast 457 526 35,000  Level FlightAware ADS-B
Tue 07:33:51 PM 37.8274 -75.6206 28° Northeast 456 525 35,000  Level FlightAware ADS-B
Tue 07:34:22 PM 37.8833 -75.5825 28° Northeast 455 524 35,000  Level FlightAware ADS-B
Tue 07:35:21 PM 37.9930 -75.5080 28° Northeast 458 527 35,000  Level FlightAware ADS-B
Tue 07:35:33 PM 38.0166 -75.4912 29° Northeast 455 524 35,000  Level FlightAware ADS-B
Tue 07:36:04 PM 38.0766 -75.4537 26° Northeast 469 540 35,000  Level FlightAware ADS-B
Tue 07:36:35 PM 38.1369 -75.4145 27° Northeast 469 540 35,000  Level FlightAware ADS-B
Tue 07:37:07 PM 38.1985 -75.3741 27° Northeast 466 536 35,000  Level FlightAware ADS-B
Tue 07:37:40 PM 38.2625 -75.3331 27° Northeast 466 536 35,000  Level FlightAware ADS-B
Tue 07:38:15 PM 38.3310 -75.2898 26° Northeast 466 536 35,000  Level FlightAware ADS-B
Tue 07:38:52 PM 38.4019 -75.2450 26° Northeast 469 540 35,000  Level FlightAware ADS-B
Tue 07:39:23 PM 38.4615 -75.2073 26° Northeast 469 540 35,000  Level FlightAware ADS-B
Tue 07:40:06 PM 38.5461 -75.1536 26° Northeast 470 541 35,000  Level FlightAware ADS-B
Tue 07:40:39 PM 38.6094 -75.1133 26° Northeast 469 540 35,000  Level FlightAware ADS-B
Tue 07:41:09 PM 38.6681 -75.0758 27° Northeast 466 536 35,000 -194 Level FlightAware ADS-B
Tue 07:41:41 PM 38.7285 -75.0371 27° Northeast 465 535 34,800 -646 Descending FlightAware ADS-B
Tue 07:42:14 PM 38.7928 -74.9957 27° Northeast 460 529 34,300 -1,545 Descending FlightAware ADS-B
Tue 07:42:47 PM 38.8545 -74.9561 27° Northeast 463 533 33,100 -2,400 Descending FlightAware ADS-B
Tue 07:43:19 PM 38.9173 -74.9155 27° Northeast 468 539 31,700 -2,476 Descending FlightAware ADS-B
Tue 07:43:50 PM 38.9771 -74.8769 27° Northeast 468 539 30,500 -2,557 Descending FlightAware ADS-B
Tue 07:44:20 PM 39.0355 -74.8392 27° Northeast 475 547 29,100 -2,069 Descending FlightAware ADS-B
Tue 07:44:48 PM 39.0887 -74.8010 29° Northeast 468 539 28,500 -1,424 Descending FlightAware ADS-B
Tue 07:45:19 PM 39.1418 -74.7507 36° Northeast 465 535 27,700 -1,645 Descending FlightAware ADS-B
Tue 07:45:50 PM 39.1926 -74.6964 40° Northeast 459 528 26,800 -2,164 Descending FlightAware ADS-B
Tue 07:46:20 PM 39.2409 -74.6437 40° Northeast 455 524 25,500 -2,500 Descending FlightAware ADS-B
Tue 07:46:50 PM 39.2889 -74.5913 40° Northeast 450 518 24,300 -2,300 Descending FlightAware ADS-B
Tue 07:47:20 PM 39.3372 -74.5387 40° Northeast 441 507 23,200 -2,226 Descending FlightAware ADS-B
Tue 07:47:52 PM 39.3854 -74.4861 40° Northeast 432 497 22,000 -2,419 Descending FlightAware ADS-B
Tue 07:48:22 PM 39.4320 -74.4354 40° Northeast 428 493 20,700 -2,557 Descending FlightAware ADS-B
Tue 07:48:53 PM 39.4786 -74.3845 40° Northeast 426 490 19,400 -2,063 Descending FlightAware ADS-B
Tue 07:49:26 PM 39.5271 -74.3315 40° Northeast 412 474 18,500 -1,292 Descending FlightAware ADS-B
Tue 07:49:58 PM 39.5735 -74.2808 40° Northeast 400 460 18,000 -469 Descending FlightAware ADS-B
Tue 07:50:30 PM 39.6188 -74.2310 40° Northeast 403 464 18,000 -571 Level FlightAware ADS-B
Tue 07:51:01 PM 39.6620 -74.1835 40° Northeast 395 455 17,400 -1,574 Descending FlightAware ADS-B
Tue 07:51:31 PM 39.7030 -74.1382 40° Northeast 385 443 16,400 -2,066 Descending FlightAware ADS-B
Tue 07:52:02 PM 39.7445 -74.0925 40° Northeast 380 437 15,300 -2,156 Descending FlightAware ADS-B
Tue 07:52:35 PM 39.7891 -74.0432 40° Northeast 375 432 14,100 -2,189 Descending FlightAware ADS-B
Tue 07:53:16 PM 39.8426 -73.9870 39° Northeast 368 423 12,600 -2,104 Descending FlightAware ADS-B
Tue 07:53:52 PM 39.8948 -73.9471 30° Northeast 360 414 11,400 -1,612 Descending FlightAware ADS-B
Tue 07:54:23 PM 39.9391 -73.9160 28° Northeast 346 398 10,800 -571 Descending FlightAware ADS-B
Tue 07:54:55 PM 39.9822 -73.8857 28° Northeast 305 351 10,800  Level FlightAware ADS-B
Tue 07:55:26 PM 40.0194 -73.8596 28° Northeast 292 336 10,800 -656 Level FlightAware ADS-B
Tue 07:55:59 PM 40.0573 -73.8306 30° Northeast 294 338 10,100 -1,375 Descending FlightAware ADS-B
Tue 07:56:14 PM 40.0745 -73.8161 33° Northeast 293 337 9,700 -1,404 Descending FlightAware ADS-B
Tue 07:56:46 PM 40.1112 -73.7850 33° Northeast 292 336 9,000 -1,224 Descending FlightAware ADS-B
Tue 07:57:03 PM 40.1292 -73.7695 33° Northeast 290 334 8,700 -1,235 Descending FlightAware ADS-B
Tue 07:57:20 PM 40.1493 -73.7524 33° Northeast 288 331 8,300 -1,421 Descending FlightAware ADS-B
Tue 07:57:41 PM 40.1722 -73.7336 32° Northeast 288 331 7,800 -1,385 Descending FlightAware ADS-B
Tue 07:57:59 PM 40.1929 -73.7166 32° Northeast 286 329 7,400 -1,395 Descending FlightAware ADS-B
Tue 07:58:24 PM 40.2209 -73.6935 32° Northeast 284 327 6,800 -1,424 Descending FlightAware ADS-B
Tue 07:58:58 PM 40.2578 -73.6630 32° Northeast 285 328 6,000 -1,469 Descending FlightAware ADS-B
Tue 07:59:13 PM 40.2748 -73.6492 32° Northeast 285 328 5,600 -1,416 Descending FlightAware ADS-B
Tue 08:00:27 PM 40.3590 -73.5830 31° Northeast 285 328 3,900 -1,256 Descending FlightAware ADS-B
Tue 08:00:39 PM 40.3720 -73.5730 30° Northeast 285 328 3,800 -150 Descending FlightAware ADS-B
Tue 08:01:07 PM 40.4040 -73.5490 30° Northeast 283 326 3,800  Level FlightAware ADS-B
Tue 08:01:35 PM 40.4360 -73.5240 31° Northeast 285 328 3,800  Level FlightAware ADS-B
Tue 08:02:03 PM 40.4690 -73.5000 29° Northeast 287 330 3,800  Level FlightAware ADS-B
Tue 08:02:14 PM 40.4810 -73.4910 30° Northeast 288 331 3,800  Level FlightAware ADS-B
Tue 08:02:45 PM 40.5160 -73.4650 29° Northeast 281 323 3,800  Level FlightAware ADS-B
Tue 08:03:13 PM 40.5490 -73.4390 31° Northeast 285 328 3,800  Level FlightAware ADS-B
Tue 08:03:29 PM 40.5680 -73.4250 29° Northeast 284 327 3,800  Level FlightAware ADS-B
Tue 08:03:57 PM 40.6000 -73.4010 30° Northeast 283 326 3,800  Level FlightAware ADS-B
Tue 08:04:24 PM 40.6300 -73.3880 18° North 278 320 3,800  Level FlightAware ADS-B
Tue 08:04:52 PM 40.6660 -73.3870 North 257 296 3,800  Level FlightAware ADS-B
Tue 08:05:04 PM 40.6800 -73.3860 North 246 283 3,800  Level FlightAware ADS-B
Tue 08:05:33 PM 40.7120 -73.3850 North 231 266 3,800  Level FlightAware ADS-B
Tue 08:06:01 PM 40.7410 -73.3850 360° North 232 267 3,800  Level FlightAware ADS-B
Tue 08:06:28 PM 40.7690 -73.3840 North 232 267 3,800  Level FlightAware ADS-B
Tue 08:07:00 PM 40.8000 -73.3830 North 232 267 3,800  Level FlightAware ADS-B
Tue 08:07:06 PM 40.8020 -73.4000 279° West 193 222 3,800  Level FlightAware ADS-B
Tue 08:07:25 PM 40.8100 -73.4120 311° West 193 222 3,800  Level FlightAware ADS-B
Tue 08:07:47 PM 40.8220 -73.4300 311° West 179 206 3,800 -107 Level FlightAware ADS-B
Tue 08:08:21 PM 40.8440 -73.4640 311° West 179 206 3,700 -484 Descending FlightAware ADS-B
Tue 08:08:49 PM 40.8570 -73.4890 305° West 172 198 3,300 -915 Descending FlightAware ADS-B
Tue 08:09:20 PM 40.8530 -73.5190 260° West 168 193 2,800 -517 Descending FlightAware ADS-B
Tue 08:09:47 PM 40.8450 -73.5450 248° West 167 192 2,800  Level FlightAware ADS-B
Tue 08:10:09 PM 40.8350 -73.5650 237° Southwest 170 196 2,800  Level FlightAware ADS-B
Tue 08:10:40 PM 40.8210 -73.5910 235° Southwest 170 196 2,800  Level FlightAware ADS-B
Tue 08:11:10 PM 40.8080 -73.6140 233° Southwest 170 196 2,800  Level FlightAware ADS-B
Tue 08:11:32 PM 40.7970 -73.6330 233° Southwest 170 196 2,800  Level FlightAware ADS-B
Tue 08:12:02 PM 40.7770 -73.6520 216° Southwest 173 199 2,800 -500 Level FlightAware ADS-B
Tue 08:12:32 PM 40.7560 -73.6680 210° Southwest 175 201 2,300 -900 Descending FlightAware ADS-B
Tue 08:13:02 PM 40.7350 -73.6850 212° Southwest 178 205 1,900 -955 Descending FlightAware ADS-B
Tue 08:13:16 PM 40.7250 -73.6930 211° Southwest 178 205 1,600 -1,000 Descending FlightAware ADS-B
Tue 08:13:44 PM 40.7060 -73.7070 209° Southwest 159 183 1,200 -750 Descending FlightAware ADS-B
Tue 08:14:12 PM 40.6900 -73.7200 212° Southwest 134 154 900 -750 Descending FlightAware ADS-B
Tue 08:14:40 PM 40.6760 -73.7310 211° Southwest 130 150 500 -692 Descending FlightAware ADS-B
Tue 08:15:04 PM 40.6630 -73.7410 210° Southwest 134 154 300 -500 Descending FlightAware ADS-B
Tue 08:15:37 PM 40.6450 -73.7550 211° Southwest 136 157 -545 Descending FlightAware ADS-B
Tue 08:16:02 PM 40.6340 -73.7640 212° Southwest 78 90  Level FlightAware ADS-B
Tue 08:16:18 PM 40.6310 -73.7660 207° Southwest 39 45  Level FlightAware ADS-B
Tue 08:16:33 PM 40.6300 -73.7680 237° Southwest 23 26  Level FlightAware ADS-B
Tue 08:16:46 PM 40.6290 -73.7700 237° Southwest 16 18  Level FlightAware ADS-B
Tue 08:16:58 PM 40.6300 -73.7700 360° North 16 18  Level FlightAware ADS-B
Tue 08:17:30 PM 40.6320 -73.7690 21° North 16 18  Level FlightAware ADS-B
Tue 08:17:40 PM 40.6330 -73.7690 360° North 31 36  Level FlightAware ADS-B
Tue 08:18:23 PM 40.6340 -73.7710 303° West 34 39  Level FlightAware ADS-B
Tue 08:18:50 PM 40.6350 -73.7730 303° West 15 17  Level FlightAware ADS-B
Tue 08:19:21 PM 40.6360 -73.7760 294° West 29 33  Level FlightAware ADS-B
Tue 08:19:33 PM 40.6370 -73.7760 360° North 21 24  Level FlightAware ADS-B
Tue 08:19:48 PM 40.6370 -73.7770 270° West 19 22  Level FlightAware ADS-B
Tue 08:20:18 PM 40.6360 -73.7770 180° South 10 12  Level FlightAware ADS-B

Login

Don't have an account? Register now (free) for customized features, flight alerts, and more!